Time;durP1;ratioP1;P1;durP2;ratioP2;P2;SDS_P1;SDS_P2;PMS_P1;PMS_P2;Temp;Humidity;BMP_temperature;BMP_pressure;BME280_temperature;BME280_humidity;BME280_pressure;Samples;Min_cycle;Max_cycle;Signal;HPM_P1;HPM_P2
2022/04/05 00:01:57;;;;;;;10.23;2.67;;;4.40;99.90;;;;;;5033037;28;20653;-72
2022/04/05 00:04:22;;;;;;;3.53;2.47;;;4.40;99.90;;;;;;5033193;28;20167;-72
2022/04/05 00:06:48;;;;;;;3.70;2.20;;;4.40;99.90;;;;;;5033072;28;20195;-66
2022/04/05 00:09:14;;;;;;;19.97;3.13;;;4.40;99.90;;;;;;5031096;28;20188;-71
2022/04/05 00:11:39;;;;;;;2.70;2.50;;;4.40;99.90;;;;;;5033022;28;20199;-65
2022/04/05 00:14:05;;;;;;;4.20;3.00;;;4.40;99.90;;;;;;5032953;28;20164;-72
2022/04/05 00:16:30;;;;;;;5.30;2.57;;;4.40;99.90;;;;;;5033130;28;20251;-66
2022/04/05 00:18:56;;;;;;;4.13;2.43;;;4.40;99.90;;;;;;5031339;28;20175;-65
2022/04/05 00:21:22;;;;;;;12.47;3.33;;;4.40;99.90;;;;;;5036558;28;20207;-66
2022/04/05 00:23:47;;;;;;;2.50;2.30;;;4.50;99.90;;;;;;5036812;28;20210;-69
2022/04/05 00:26:13;;;;;;;11.20;2.50;;;4.50;99.90;;;;;;5036535;28;20196;-71
2022/04/05 00:28:38;;;;;;;3.53;2.40;;;4.50;99.90;;;;;;5035956;28;20172;-71
2022/04/05 00:31:05;;;;;;;14.10;3.43;;;4.60;99.90;;;;;;5036580;28;20173;-66
2022/04/05 00:33:31;;;;;;;7.43;2.67;;;4.60;99.90;;;;;;5036675;28;20182;-65
2022/04/05 00:35:56;;;;;;;5.90;2.30;;;4.70;99.90;;;;;;5036433;28;20398;-66
2022/04/05 00:38:22;;;;;;;2.33;1.63;;;4.60;99.90;;;;;;5036217;28;20183;-71
2022/04/05 00:40:48;;;;;;;6.00;2.13;;;4.60;99.90;;;;;;5035912;28;20202;-72
2022/04/05 00:43:13;;;;;;;8.40;2.03;;;4.60;99.90;;;;;;5036570;28;20192;-65
2022/04/05 00:45:39;;;;;;;1.97;1.77;;;4.60;99.90;;;;;;5036426;28;20265;-65
2022/04/05 00:48:06;;;;;;;2.80;2.03;;;4.60;99.90;;;;;;5036228;28;20171;-71
2022/04/05 00:50:38;;;;;;;5.37;2.23;;;4.50;99.90;;;;;;5035496;28;20271;-66
2022/04/05 00:53:08;;;;;;;8.03;1.80;;;4.50;99.90;;;;;;5036165;28;20473;-65
2022/04/05 00:55:35;;;;;;;4.30;2.20;;;4.50;99.90;;;;;;5036188;28;20421;-66
2022/04/05 00:58:03;;;;;;;4.40;1.80;;;4.50;99.90;;;;;;5036241;28;20794;-71
2022/04/05 01:00:28;;;;;;;6.60;2.33;;;4.40;99.90;;;;;;5035455;28;20398;-70
2022/04/05 01:02:56;;;;;;;3.50;2.03;;;4.50;99.90;;;;;;5036046;28;20490;-65
2022/04/05 01:05:22;;;;;;;4.83;2.13;;;4.50;99.90;;;;;;5035899;28;20406;-71
2022/04/05 01:07:50;;;;;;;3.10;2.13;;;4.40;99.90;;;;;;5036068;28;20451;-70
2022/04/05 01:10:16;;;;;;;7.07;2.67;;;4.50;99.90;;;;;;5035160;28;20423;-70
2022/04/05 01:12:42;;;;;;;5.90;2.80;;;4.40;99.90;;;;;;5034471;28;20434;-71
2022/04/05 01:15:08;;;;;;;5.47;2.00;;;4.40;99.90;;;;;;5035827;28;20416;-71
2022/04/05 01:17:35;;;;;;;2.77;2.50;;;4.40;99.90;;;;;;5035842;28;20414;-70
2022/04/05 01:20:01;;;;;;;5.80;2.20;;;4.30;99.90;;;;;;5035055;28;20425;-65
2022/04/05 01:22:27;;;;;;;10.77;3.83;;;4.30;99.90;;;;;;5034286;28;20520;-66
2022/04/05 01:24:52;;;;;;;9.70;2.07;;;4.20;99.90;;;;;;5035592;28;20457;-71
2022/04/05 01:27:19;;;;;;;4.10;1.90;;;4.20;99.90;;;;;;5035624;28;20204;-65
2022/04/05 01:29:47;;;;;;;7.50;2.27;;;4.20;99.90;;;;;;5034962;28;20245;-65
2022/04/05 01:32:13;;;;;;;2.90;1.80;;;4.20;99.90;;;;;;5032850;28;20440;-70
2022/04/05 01:34:39;;;;;;;12.37;2.70;;;4.10;99.90;;;;;;5035276;28;20379;-66
2022/04/05 01:37:10;;;;;;;8.10;2.17;;;4.10;99.90;;;;;;5035330;28;20461;-71
2022/04/05 01:39:38;;;;;;;6.20;1.80;;;4.10;99.90;;;;;;5034799;28;20775;-71
2022/04/05 01:42:09;;;;;;;5.63;2.07;;;4.10;99.90;;;;;;5035308;28;20434;-65
2022/04/05 01:44:36;;;;;;;4.40;2.00;;;4.10;99.90;;;;;;5035156;28;20433;-65
2022/04/05 01:47:13;;;;;;;7.20;2.30;;;4.10;99.90;;;;;;5034951;28;20462;-71
2022/04/05 01:49:39;;;;;;;5.80;2.33;;;4.10;99.90;;;;;;5033552;28;20403;-71
2022/04/05 01:52:07;;;;;;;4.10;2.50;;;4.10;99.90;;;;;;5035204;28;20425;-65
2022/04/05 01:54:32;;;;;;;2.13;2.03;;;4.00;99.90;;;;;;5035200;28;20430;-65
2022/04/05 01:56:58;;;;;;;10.60;2.40;;;4.00;99.90;;;;;;5035036;28;20854;-71
2022/04/05 01:59:29;;;;;;;6.70;2.57;;;4.00;99.90;;;;;;5033330;28;20537;-71
2022/04/05 02:01:55;;;;;;;3.00;2.17;;;4.00;99.90;;;;;;5034854;28;20728;-65
2022/04/05 02:04:21;;;;;;;7.47;1.60;;;4.00;99.90;;;;;;5035016;28;20419;-65
2022/04/05 02:06:47;;;;;;;9.67;2.50;;;4.00;99.90;;;;;;5034807;28;20799;-66
2022/04/05 02:09:14;;;;;;;9.50;2.10;;;4.00;99.90;;;;;;5034094;28;20593;-71
2022/04/05 02:11:43;;;;;;;3.13;1.87;;;4.00;99.90;;;;;;5034750;28;20926;-70
2022/04/05 02:14:09;;;;;;;2.50;1.87;;;4.00;99.90;;;;;;5034720;28;20441;-70
2022/04/05 02:16:35;;;;;;;11.93;2.57;;;4.00;99.90;;;;;;5034704;28;20452;-65
2022/04/05 02:19:01;;;;;;;5.93;1.53;;;4.00;99.90;;;;;;5033809;28;20492;-66
2022/04/05 02:21:26;;;;;;;7.07;2.33;;;4.00;99.90;;;;;;5034370;28;20202;-65
2022/04/05 02:23:52;;;;;;;6.20;2.47;;;4.00;99.90;;;;;;5033508;28;20177;-65
2022/04/05 02:26:18;;;;;;;6.60;1.57;;;4.00;99.90;;;;;;5034365;28;20225;-71
2022/04/05 02:28:43;;;;;;;3.50;1.93;;;3.90;99.90;;;;;;5033764;28;20215;-65
2022/04/05 02:31:09;;;;;;;6.37;2.03;;;3.90;99.90;;;;;;5034141;28;20613;-68
2022/04/05 02:33:35;;;;;;;8.07;2.20;;;3.90;99.90;;;;;;5034662;28;20160;-70
2022/04/05 02:36:03;;;;;;;3.27;2.13;;;3.90;99.90;;;;;;5034219;28;20957;-65
2022/04/05 02:38:29;;;;;;;2.73;2.03;;;3.90;99.90;;;;;;5033628;28;20165;-69
2022/04/05 02:40:57;;;;;;;9.87;2.20;;;3.90;99.90;;;;;;5034136;28;20406;-71
2022/04/05 02:43:26;;;;;;;5.30;2.50;;;3.90;99.90;;;;;;5033544;28;20480;-71
2022/04/05 02:45:55;;;;;;;4.87;2.00;;;3.80;99.90;;;;;;5033123;28;20908;-65
2022/04/05 02:48:21;;;;;;;4.83;2.20;;;3.80;99.90;;;;;;5034065;28;20473;-71
2022/04/05 02:50:47;;;;;;;17.63;2.57;;;3.80;99.90;;;;;;5032515;28;20403;-65
2022/04/05 02:53:12;;;;;;;2.00;1.87;;;3.90;99.90;;;;;;5034009;28;20914;-70
2022/04/05 02:55:38;;;;;;;12.97;2.53;;;3.90;99.90;;;;;;5033994;28;20165;-67
2022/04/05 02:58:04;;;;;;;10.40;2.00;;;3.90;99.90;;;;;;5034202;28;20250;-70
2022/04/05 03:00:29;;;;;;;4.30;1.63;;;3.90;99.90;;;;;;5031955;28;20177;-71
2022/04/05 03:02:55;;;;;;;5.03;1.93;;;3.90;99.90;;;;;;5033982;28;20275;-65
2022/04/05 03:05:22;;;;;;;4.83;2.10;;;3.90;99.90;;;;;;5032535;28;20167;-70
2022/04/05 03:07:48;;;;;;;9.40;1.60;;;3.90;99.90;;;;;;5032404;28;20236;-65
2022/04/05 03:10:14;;;;;;;6.30;2.70;;;3.90;99.90;;;;;;5032885;28;20462;-70
2022/04/05 03:12:40;;;;;;;4.83;2.00;;;3.90;99.90;;;;;;5032700;28;20283;-65
2022/04/05 03:15:07;;;;;;;3.43;1.70;;;3.90;99.90;;;;;;5033691;28;20397;-70
2022/04/05 03:17:34;;;;;;;5.23;1.83;;;3.90;99.90;;;;;;5033460;28;20498;-66
2022/04/05 03:20:00;;;;;;;11.23;1.93;;;3.90;99.90;;;;;;5033096;28;20411;-65
2022/04/05 03:22:26;;;;;;;2.57;2.00;;;3.90;99.90;;;;;;5033533;28;20512;-70
2022/04/05 03:24:52;;;;;;;2.50;2.03;;;3.80;99.90;;;;;;5033489;28;20438;-66
2022/04/05 03:27:18;;;;;;;6.87;1.90;;;3.90;99.90;;;;;;5033447;28;20947;-65
2022/04/05 03:29:43;;;;;;;10.53;2.50;;;3.90;99.90;;;;;;5032717;28;20174;-65
2022/04/05 03:32:11;;;;;;;10.03;2.50;;;3.90;99.90;;;;;;5031995;28;20977;-65
2022/04/05 03:34:37;;;;;;;8.20;2.40;;;3.80;99.90;;;;;;5033481;28;20163;-65
2022/04/05 03:37:04;;;;;;;5.83;2.60;;;3.90;99.90;;;;;;5033406;28;20433;-65
2022/04/05 03:39:29;;;;;;;10.53;1.90;;;3.80;99.90;;;;;;5032611;28;20437;-70
2022/04/05 03:41:55;;;;;;;1.40;1.30;;;3.80;99.90;;;;;;5033129;28;20814;-70
2022/04/05 03:44:21;;;;;;;6.00;2.10;;;3.80;99.90;;;;;;5033215;28;20180;-65
2022/04/05 03:46:47;;;;;;;3.10;1.83;;;3.70;99.90;;;;;;5033334;28;20187;-71
2022/04/05 03:49:13;;;;;;;3.73;1.70;;;3.70;99.90;;;;;;5032595;28;20589;-70
2022/04/05 03:51:38;;;;;;;2.33;2.03;;;3.70;99.90;;;;;;5033135;28;20416;-65
2022/04/05 03:54:04;;;;;;;1.80;1.70;;;3.70;99.90;;;;;;5033234;28;20209;-65
2022/04/05 03:56:30;;;;;;;6.43;2.30;;;3.70;99.90;;;;;;5037577;28;20252;-65
2022/04/05 03:58:56;;;;;;;4.73;2.13;;;3.60;99.90;;;;;;5036721;28;20167;-71
2022/04/05 04:01:22;;;;;;;7.83;2.20;;;3.60;99.90;;;;;;5037110;28;20406;-65
2022/04/05 04:03:47;;;;;;;5.27;2.43;;;3.70;99.90;;;;;;5037206;28;20173;-65
2022/04/05 04:06:13;;;;;;;14.30;2.63;;;3.60;99.90;;;;;;5037033;28;20579;-65
2022/04/05 04:08:39;;;;;;;1.97;1.20;;;3.60;99.90;;;;;;5036342;28;20182;-70
2022/04/05 04:11:04;;;;;;;2.03;1.93;;;3.60;99.90;;;;;;5037086;28;20169;-65
2022/04/05 04:13:30;;;;;;;2.73;2.53;;;3.60;99.90;;;;;;5036988;28;20175;-70
2022/04/05 04:15:56;;;;;;;5.60;1.63;;;3.50;99.90;;;;;;5036908;28;20169;-71
2022/04/05 04:18:22;;;;;;;12.47;2.73;;;3.50;99.90;;;;;;5036730;28;20164;-71
2022/04/05 04:20:51;;;;;;;2.97;1.60;;;3.50;99.90;;;;;;5035008;28;20480;-65
2022/04/05 04:23:17;;;;;;;5.37;1.80;;;3.50;99.90;;;;;;5036609;28;20444;-65
2022/04/05 04:25:42;;;;;;;4.33;1.97;;;3.50;99.90;;;;;;5036777;28;20891;-70
2022/04/05 04:28:10;;;;;;;4.60;2.43;;;3.50;99.90;;;;;;5036451;28;20200;-71
2022/04/05 04:30:38;;;;;;;3.27;2.03;;;3.50;99.90;;;;;;5034973;28;20251;-65
2022/04/05 04:33:04;;;;;;;9.57;2.10;;;3.50;99.90;;;;;;5036550;28;20430;-65
2022/04/05 04:35:31;;;;;;;3.13;2.00;;;3.50;99.90;;;;;;5036485;28;20412;-65
2022/04/05 04:37:57;;;;;;;3.73;2.00;;;3.50;99.90;;;;;;5036413;28;20418;-65
2022/04/05 04:40:23;;;;;;;2.90;1.80;;;3.60;99.90;;;;;;5035687;28;20406;-65
2022/04/05 04:42:49;;;;;;;4.77;1.80;;;3.60;99.90;;;;;;5036356;28;20431;-70
2022/04/05 04:45:14;;;;;;;2.60;1.87;;;3.60;99.90;;;;;;5036423;28;20179;-70
2022/04/05 04:47:40;;;;;;;3.50;2.33;;;3.60;99.90;;;;;;5036264;28;20516;-65
2022/04/05 04:50:08;;;;;;;12.33;2.40;;;3.60;99.90;;;;;;5035574;28;20175;-71
2022/04/05 04:52:34;;;;;;;3.87;2.40;;;3.50;99.90;;;;;;5034701;28;21005;-70
2022/04/05 04:55:00;;;;;;;7.73;3.30;;;3.50;99.90;;;;;;5036421;28;20485;-65
2022/04/05 04:57:26;;;;;;;5.93;2.30;;;3.40;99.90;;;;;;5035237;28;20413;-70
2022/04/05 04:59:52;;;;;;;2.80;2.00;;;3.40;99.90;;;;;;5034407;28;20923;-70
2022/04/05 05:02:22;;;;;;;2.63;2.43;;;3.40;99.90;;;;;;5035917;28;20215;-71
2022/04/05 05:04:51;;;;;;;3.57;2.30;;;3.40;99.90;;;;;;5036102;28;20399;-69
2022/04/05 05:07:17;;;;;;;9.67;2.20;;;3.50;99.90;;;;;;5035864;28;20445;-65
2022/04/05 05:09:42;;;;;;;2.80;2.60;;;3.50;99.90;;;;;;5035331;28;20796;-65
2022/04/05 05:12:10;;;;;;;3.03;2.63;;;3.40;99.90;;;;;;5035890;28;20238;-65
2022/04/05 05:14:39;;;;;;;6.33;2.33;;;3.40;99.90;;;;;;5035865;28;20195;-65
2022/04/05 05:17:05;;;;;;;5.43;1.87;;;3.40;99.90;;;;;;5035947;28;20399;-65
2022/04/05 05:19:32;;;;;;;3.90;2.30;;;3.30;99.90;;;;;;5035133;28;20426;-71
2022/04/05 05:21:58;;;;;;;3.83;2.30;;;3.30;99.90;;;;;;5034690;28;20434;-65
2022/04/05 05:24:23;;;;;;;13.37;2.50;;;3.30;99.90;;;;;;5035659;28;20898;-65
2022/04/05 05:26:49;;;;;;;3.00;2.30;;;3.40;99.90;;;;;;5034480;28;20264;-69
2022/04/05 05:29:15;;;;;;;2.70;2.40;;;3.30;99.90;;;;;;5033646;28;20581;-70
2022/04/05 05:31:41;;;;;;;4.47;2.83;;;3.40;99.90;;;;;;5035521;28;20660;-70
2022/04/05 05:34:07;;;;;;;3.67;2.23;;;3.40;99.90;;;;;;5035496;28;20405;-65
2022/04/05 05:36:33;;;;;;;6.10;2.47;;;3.50;99.90;;;;;;5035365;28;20170;-70
2022/04/05 05:38:58;;;;;;;2.00;1.90;;;3.50;99.90;;;;;;5034681;28;20415;-65
2022/04/05 05:41:24;;;;;;;5.30;2.47;;;3.40;99.90;;;;;;5035480;28;20541;-66
2022/04/05 05:43:50;;;;;;;6.13;3.10;;;3.50;99.90;;;;;;5035260;28;20175;-69
2022/04/05 05:46:15;;;;;;;2.03;1.87;;;3.50;99.90;;;;;;5035143;28;20237;-68
2022/04/05 05:48:42;;;;;;;8.80;2.40;;;3.60;99.90;;;;;;5034404;28;20210;-68
2022/04/05 05:51:08;;;;;;;5.25;2.40;;;;;;;;;;5034890;28;20398;-68
2022/04/05 05:53:34;;;;;;;5.27;3.13;;;3.70;99.90;;;;;;5035243;28;20581;-65
2022/04/05 05:56:00;;;;;;;7.17;2.33;;;3.70;99.90;;;;;;5035015;28;20502;-69
2022/04/05 05:58:27;;;;;;;9.30;2.43;;;3.70;99.90;;;;;;5035093;28;20519;-65
2022/04/05 06:00:52;;;;;;;3.03;2.03;;;3.90;99.90;;;;;;5033543;28;20473;-70
2022/04/05 06:03:18;;;;;;;6.40;2.57;;;3.90;99.90;;;;;;5034729;28;20426;-66
2022/04/05 06:05:45;;;;;;;4.70;2.90;;;3.90;99.90;;;;;;5035166;28;20536;-65
2022/04/05 06:08:13;;;;;;;2.70;1.87;;;4.00;99.90;;;;;;5034890;28;20187;-69
2022/04/05 06:10:38;;;;;;;13.17;2.17;;;4.10;99.90;;;;;;5034134;28;20434;-69
2022/04/05 06:13:04;;;;;;;10.33;2.60;;;4.00;99.90;;;;;;5034603;28;20419;-65
2022/04/05 06:15:32;;;;;;;6.50;2.70;;;4.10;99.90;;;;;;5033571;28;20635;-65
2022/04/05 06:17:58;;;;;;;7.43;2.10;;;4.20;99.90;;;;;;5034147;28;20799;-70
2022/04/05 06:20:24;;;;;;;4.33;2.13;;;4.30;99.90;;;;;;5033824;28;20464;-64
2022/04/05 06:23:02;;;;;;;2.40;2.20;;;4.30;99.90;;;;;;5034481;28;20482;-65
2022/04/05 06:25:29;;;;;;;3.33;2.30;;;4.50;99.90;;;;;;5034507;28;20464;-65
2022/04/05 06:28:03;;;;;;;9.13;2.47;;;4.60;99.90;;;;;;5033122;28;20462;-70
2022/04/05 06:30:30;;;;;;;7.00;2.20;;;4.70;99.90;;;;;;5033774;28;20416;-65
2022/04/05 06:33:05;;;;;;;11.47;2.90;;;4.70;97.80;;;;;;5034272;28;20418;-70
2022/04/05 06:35:30;;;;;;;3.10;2.00;;;4.80;93.80;;;;;;5034290;28;20493;-64
2022/04/05 06:37:56;;;;;;;4.80;2.47;;;4.90;93.30;;;;;;5034360;28;20494;-64
2022/04/05 06:40:21;;;;;;;10.47;3.00;;;4.90;77.30;;;;;;5032345;28;20176;-64
2022/04/05 06:42:47;;;;;;;1.87;1.50;;;5.00;69.60;;;;;;5034058;28;20249;-69
2022/04/05 06:45:17;;;;;;;3.40;1.67;;;5.00;43.30;;;;;;5034026;28;20175;-65
2022/04/05 06:47:43;;;;;;;2.57;2.03;;;5.00;28.60;;;;;;5034155;28;20231;-64
2022/04/05 06:50:10;;;;;;;3.53;1.80;;;5.10;25.10;;;;;;5033388;28;20402;-64
2022/04/05 06:52:38;;;;;;;7.30;2.10;;;5.00;5.20;;;;;;5033884;28;20666;-64
2022/04/05 06:55:05;;;;;;;4.20;1.80;;;5.00;1.00;;;;;;5034376;28;20405;-65
2022/04/05 06:57:31;;;;;;;5.80;2.67;;;5.00;1.00;;;;;;5033726;28;20457;-70
2022/04/05 06:59:56;;;;;;;4.20;2.10;;;4.90;1.00;;;;;;5033297;28;20441;-65
2022/04/05 07:02:22;;;;;;;2.73;1.83;;;4.90;1.00;;;;;;5033940;28;20426;-64
2022/04/05 07:04:48;;;;;;;5.73;1.70;;;4.90;1.00;;;;;;5033934;28;20171;-64
2022/04/05 07:07:14;;;;;;;5.50;2.07;;;4.90;1.00;;;;;;5033661;28;20202;-70
2022/04/05 07:09:40;;;;;;;1.93;1.73;;;4.90;1.00;;;;;;5033020;28;20781;-64
2022/04/05 07:12:07;;;;;;;1.97;1.50;;;4.90;1.00;;;;;;5033739;28;20611;-70
2022/04/05 07:14:33;;;;;;;3.33;1.70;;;4.90;1.00;;;;;;5033797;28;20159;-70
2022/04/05 07:16:59;;;;;;;10.93;2.70;;;4.90;1.00;;;;;;5033707;28;20399;-64
2022/04/05 07:19:25;;;;;;;3.67;2.27;;;4.90;1.00;;;;;;5032833;28;20414;-64
2022/04/05 07:21:51;;;;;;;2.60;1.60;;;5.00;1.00;;;;;;5033458;28;20988;-70
2022/04/05 07:24:18;;;;;;;2.73;1.80;;;5.10;1.00;;;;;;5033545;28;20175;-65
2022/04/05 07:26:44;;;;;;;7.13;1.93;;;5.20;1.00;;;;;;5032093;28;20866;-65
2022/04/05 07:29:10;;;;;;;4.50;2.10;;;5.30;1.00;;;;;;5032904;28;20404;-65
2022/04/05 07:31:36;;;;;;;2.90;2.23;;;5.40;1.00;;;;;;5032054;28;20466;-70
2022/04/05 07:34:03;;;;;;;3.47;1.97;;;5.40;1.00;;;;;;5033431;28;20433;-64
2022/04/05 07:36:29;;;;;;;4.23;2.40;;;5.50;1.00;;;;;;5033518;28;20253;-70
2022/04/05 07:38:55;;;;;;;2.50;1.53;;;5.70;1.00;;;;;;5031562;28;20870;-70
2022/04/05 07:41:21;;;;;;;2.10;2.00;;;5.80;1.00;;;;;;5033282;28;20466;-65
2022/04/05 07:43:47;;;;;;;3.50;1.50;;;5.80;1.00;;;;;;5033182;28;20212;-65
2022/04/05 07:46:12;;;;;;;2.00;1.90;;;5.90;1.00;;;;;;5033341;28;20571;-66
2022/04/05 07:48:39;;;;;;;4.80;2.00;;;6.10;1.00;;;;;;5032813;28;20453;-67
2022/04/05 07:51:05;;;;;;;5.90;1.73;;;6.10;1.00;;;;;;5033147;28;20159;-67
2022/04/05 07:53:31;;;;;;;3.28;1.55;;;6.20;1.00;;;;;;5032995;28;20869;-71
2022/04/05 07:55:57;;;;;;;5.10;2.50;;;6.20;1.00;;;;;;5033094;28;20163;-66
2022/04/05 07:58:24;;;;;;;3.70;1.70;;;6.40;1.00;;;;;;5033152;28;20398;-68
2022/04/05 08:00:51;;;;;;;1.70;1.60;;;6.50;1.00;;;;;;5031309;28;20417;-67
2022/04/05 08:03:17;;;;;;;9.20;1.70;;;6.50;1.00;;;;;;5033115;28;20426;-73
2022/04/05 08:05:43;;;;;;;4.40;2.10;;;6.60;1.00;;;;;;5033143;28;20455;-74
2022/04/05 08:08:09;;;;;;;3.33;1.60;;;6.80;1.00;;;;;;5032923;28;20548;-74
2022/04/05 08:10:35;;;;;;;12.53;2.00;;;6.90;1.00;;;;;;5032388;28;20421;-72
2022/04/05 08:13:01;;;;;;;7.80;2.60;;;7.00;1.00;;;;;;5032995;28;20414;-70
2022/04/05 08:15:27;;;;;;;4.37;2.40;;;6.90;1.00;;;;;;5032985;28;20751;-69
2022/04/05 08:17:53;;;;;;;4.03;2.07;;;6.80;99.90;;;;;;5033047;28;20168;-69
2022/04/05 08:20:19;;;;;;;3.07;1.77;;;6.90;99.90;;;;;;5032372;28;20464;-65
2022/04/05 08:22:46;;;;;;;2.00;1.80;;;7.10;99.90;;;;;;5031895;28;20200;-70
2022/04/05 08:25:16;;;;;;;4.33;1.90;;;7.30;99.90;;;;;;5033036;28;20406;-70
2022/04/05 08:27:43;;;;;;;3.20;2.00;;;7.40;99.90;;;;;;5032952;28;20772;-70
2022/04/05 08:30:12;;;;;;;2.17;1.90;;;7.50;99.90;;;;;;5031291;28;20417;-71
2022/04/05 08:32:42;;;;;;;3.57;1.87;;;7.60;99.90;;;;;;5033022;28;20434;-65
2022/04/05 08:35:09;;;;;;;3.30;3.00;;;7.60;99.90;;;;;;5032966;28;20406;-65
2022/04/05 08:37:35;;;;;;;4.50;1.87;;;7.70;99.90;;;;;;5031854;28;20410;-71
2022/04/05 08:40:06;;;;;;;2.43;1.53;;;7.70;99.90;;;;;;5032171;28;20377;-65
2022/04/05 08:42:33;;;;;;;3.90;1.50;;;7.70;99.90;;;;;;5036366;28;20652;-70
2022/04/05 08:45:01;;;;;;;2.63;1.80;;;7.80;99.90;;;;;;5035386;28;20847;-65
2022/04/05 08:47:28;;;;;;;3.53;1.80;;;7.80;99.90;;;;;;5036220;28;21002;-70
2022/04/05 08:49:55;;;;;;;3.27;2.00;;;7.80;99.90;;;;;;5034511;28;20556;-66
2022/04/05 08:52:21;;;;;;;9.37;1.60;;;7.50;99.90;;;;;;5036055;28;20430;-65
2022/04/05 08:54:47;;;;;;;4.50;1.97;;;7.50;99.90;;;;;;5036331;28;20421;-70
2022/04/05 08:57:12;;;;;;;5.03;2.03;;;7.60;99.90;;;;;;5036241;28;20175;-70
2022/04/05 08:59:38;;;;;;;3.70;1.67;;;7.60;99.90;;;;;;5034161;28;20253;-70
2022/04/05 09:02:04;;;;;;;5.63;2.83;;;7.60;99.90;;;;;;5035894;28;20195;-69
2022/04/05 09:04:33;;;;;;;2.80;1.80;;;7.60;99.90;;;;;;5035869;28;20174;-69
2022/04/05 09:07:23;;;;;;;6.93;1.97;;;7.40;99.90;;;;;;5036108;28;20302;-64
2022/04/05 09:10:15;;;;;;;5.83;2.10;;;7.20;99.90;;;;;;5035145;28;20440;-69
2022/04/05 09:12:44;;;;;;;3.33;1.63;;;7.00;99.90;;;;;;5035822;28;20432;-69
2022/04/05 09:15:34;;;;;;;1.70;1.60;;;6.60;99.90;;;;;;5035858;28;20394;-69
2022/04/05 09:18:00;;;;;;;3.40;2.53;;;6.20;99.90;;;;;;5034697;28;20406;-65
2022/04/05 09:20:27;;;;;;;3.67;2.17;;;5.90;99.90;;;;;;5035088;28;20490;-68
2022/04/05 09:22:54;;;;;;;7.17;1.90;;;5.70;99.90;;;;;;5035631;28;20249;-65
2022/04/05 09:25:20;;;;;;;2.63;1.60;;;5.50;1.00;;;;;;5035751;28;20496;-69
2022/04/05 09:27:51;;;;;;;2.80;2.20;;;5.50;1.00;;;;;;5035525;28;20972;-65
2022/04/05 09:30:26;;;;;;;3.70;2.27;;;5.70;1.00;;;;;;5034949;28;20438;-67
2022/04/05 09:32:52;;;;;;;1.97;1.70;;;5.80;1.00;;;;;;5035507;28;20421;-70
2022/04/05 09:35:42;;;;;;;1.60;1.50;;;5.90;1.00;;;;;;5035675;28;20883;-66
2022/04/05 09:38:12;;;;;;;3.47;2.30;;;5.80;1.00;;;;;;5037655;28;20188;-65
2022/04/05 09:40:38;;;;;;;4.33;1.80;;;5.70;1.00;;;;;;5034602;28;20403;-66
2022/04/05 09:43:07;;;;;;;4.47;2.17;;;5.60;1.00;;;;;;5035376;28;20517;-70
2022/04/05 09:45:53;;;;;;;1.80;1.67;;;5.50;1.00;;;;;;5035364;28;20452;-70
2022/04/05 09:48:24;;;;;;;6.97;1.90;;;5.60;1.00;;;;;;5035117;28;20460;-69
2022/04/05 09:51:00;;;;;;;2.20;2.00;;;5.60;1.00;;;;;;5034558;28;20404;-70
2022/04/05 09:53:27;;;;;;;2.07;1.57;;;5.60;1.00;;;;;;5034209;28;20827;-71
2022/04/05 09:56:24;;;;;;;2.47;1.50;;;5.70;1.00;;;;;;5035118;28;20404;-66
2022/04/05 09:58:53;;;;;;;2.93;1.90;;;6.00;1.00;;;;;;5032850;28;20779;-66
2022/04/05 10:01:21;;;;;;;3.10;1.60;;;6.50;1.00;;;;;;5035077;28;20416;-71
2022/04/05 10:04:11;;;;;;;1.70;1.60;;;7.10;1.00;;;;;;5034932;28;20499;-66
2022/04/05 10:06:42;;;;;;;3.87;1.90;;;7.60;1.00;;;;;;5034745;28;20482;-72
2022/04/05 10:09:08;;;;;;;2.73;1.70;;;8.00;1.00;;;;;;5032927;28;20434;-68
2022/04/05 10:11:36;;;;;;;3.13;1.33;;;8.30;99.90;;;;;;5034645;28;20481;-67
2022/04/05 10:14:02;;;;;;;1.70;1.60;;;8.40;99.90;;;;;;5034912;28;20167;-67
2022/04/05 10:16:29;;;;;;;2.73;1.27;;;8.40;99.90;;;;;;5034841;28;20398;-68
2022/04/05 10:19:04;;;;;;;2.33;1.73;;;8.10;99.90;;;;;;5033972;28;20518;-66
2022/04/05 10:21:34;;;;;;;3.80;1.70;;;8.00;99.90;;;;;;5034577;28;20790;-69
2022/04/05 10:24:01;;;;;;;2.90;1.87;;;7.80;99.90;;;;;;5034536;28;20414;-69
2022/04/05 10:26:28;;;;;;;2.40;1.60;;;7.60;99.90;;;;;;5034537;28;20457;-65
2022/04/05 10:28:57;;;;;;;1.40;1.30;;;7.30;99.90;;;;;;5033796;28;20394;-65
2022/04/05 10:31:42;;;;;;;1.60;1.50;;;7.20;99.90;;;;;;5034621;28;20403;-70
2022/04/05 10:34:36;;;;;;;2.30;1.50;;;6.80;99.90;;;;;;5034405;28;20921;-65
2022/04/05 10:37:19;;;;;;;1.77;1.67;;;6.60;99.90;;;;;;5034233;28;21024;-65
2022/04/05 10:40:10;;;;;;;3.63;1.50;;;6.40;99.90;;;;;;5033717;28;20410;-65
2022/04/05 10:42:46;;;;;;;1.80;1.70;;;6.60;99.90;;;;;;5036291;28;20434;-70
2022/04/05 10:45:29;;;;;;;2.00;1.80;;;6.90;99.90;;;;;;5033995;28;20980;-65
2022/04/05 10:48:10;;;;;;;1.80;1.70;;;7.20;99.90;;;;;;5034086;28;20976;-70
2022/04/05 10:50:36;;;;;;;4.10;1.90;;;7.50;99.90;;;;;;5033368;28;20407;-65
2022/04/05 10:53:17;;;;;;;2.80;1.33;;;7.50;99.90;;;;;;5033832;28;20414;-65
2022/04/05 10:56:21;;;;;;;3.00;1.90;;;7.50;99.90;;;;;;5034007;28;20437;-70
2022/04/05 10:58:47;;;;;;;2.27;2.10;;;7.70;99.90;;;;;;5051023;28;20467;-70
2022/04/05 11:01:23;;;;;;;1.90;1.80;;;7.90;99.90;;;;;;5034981;28;20420;-70
2022/04/05 11:04:16;;;;;;;4.80;1.70;;;8.20;99.90;;;;;;5042161;28;20171;-65
2022/04/05 11:07:01;;;;;;;2.27;1.30;;;8.30;99.90;;;;;;5033822;28;20957;-64
2022/04/05 11:09:47;;;;;;;1.87;1.57;;;8.50;99.90;;;;;;5035577;28;21030;-64
2022/04/05 11:12:25;;;;;;;2.97;1.60;;;8.60;99.90;;;;;;5033648;28;20521;-66
2022/04/05 11:14:52;;;;;;;3.33;1.70;;;8.90;99.90;;;;;;5033754;28;20457;-66
2022/04/05 11:17:25;;;;;;;7.00;2.03;;;9.30;99.90;;;;;;5033702;28;20483;-73
2022/04/05 11:19:55;;;;;;;3.00;1.30;;;9.60;99.90;;;;;;5032950;28;20408;-72
2022/04/05 11:22:20;;;;;;;3.50;1.83;;;9.80;99.90;;;;;;5033684;28;20519;-72
2022/04/05 11:24:51;;;;;;;2.60;1.63;;;9.70;99.90;;;;;;5033723;28;20539;-66
2022/04/05 11:27:38;;;;;;;1.60;1.50;;;9.60;99.90;;;;;;5033465;28;20202;-68
2022/04/05 11:30:27;;;;;;;3.90;2.23;;;9.50;99.90;;;;;;5032808;28;20397;-66
2022/04/05 11:33:30;;;;;;;1.67;1.47;;;9.40;99.90;;;;;;5033496;28;20418;-65
2022/04/05 11:36:01;;;;;;;6.00;1.40;;;8.90;99.90;;;;;;5033692;28;20486;-64
2022/04/05 11:38:29;;;;;;;5.03;1.70;;;8.70;99.90;;;;;;5033265;28;20429;-70
2022/04/05 11:41:03;;;;;;;2.07;1.40;;;8.60;99.90;;;;;;5033443;28;20407;-64
2022/04/05 11:43:38;;;;;;;2.40;1.43;;;8.50;99.90;;;;;;5033269;28;20887;-73
2022/04/05 11:46:29;;;;;;;4.37;1.60;;;8.60;99.90;;;;;;5033352;28;20398;-70
2022/04/05 11:49:00;;;;;;;1.77;1.43;;;8.60;99.90;;;;;;5034604;28;20419;-70
2022/04/05 11:51:28;;;;;;;3.37;2.30;;;8.60;99.90;;;;;;5033199;28;20414;-72
2022/04/05 11:54:12;;;;;;;2.20;1.60;;;8.60;99.90;;;;;;5033112;28;20422;-72
2022/04/05 11:56:42;;;;;;;2.70;1.60;;;8.60;99.90;;;;;;5033320;28;20478;-71
2022/04/05 11:59:11;;;;;;;7.80;1.80;;;8.60;99.90;;;;;;5031392;28;20813;-66
2022/04/05 12:01:39;;;;;;;2.17;1.70;;;8.60;99.90;;;;;;5032931;28;20493;-70
2022/04/05 12:04:13;;;;;;;1.40;1.30;;;8.60;99.90;;;;;;5033023;28;20502;-64
2022/04/05 12:06:42;;;;;;;2.10;1.90;;;8.40;99.90;;;;;;5033181;28;20457;-69
2022/04/05 12:09:19;;;;;;;5.13;1.43;;;8.40;99.90;;;;;;5032476;28;20419;-68
2022/04/05 12:11:49;;;;;;;3.10;1.83;;;8.30;99.90;;;;;;5032875;28;20441;-68
2022/04/05 12:14:17;;;;;;;1.70;1.47;;;8.30;99.90;;;;;;5033230;28;20399;-71
2022/04/05 12:16:49;;;;;;;2.20;1.80;;;8.40;99.90;;;;;;5036015;28;20400;-66
2022/04/05 12:19:28;;;;;;;4.83;1.57;;;8.50;99.90;;;;;;5036315;28;20403;-68
2022/04/05 12:22:18;;;;;;;1.87;1.60;;;8.50;99.90;;;;;;5036711;28;20422;-64
2022/04/05 12:24:57;;;;;;;2.03;1.43;;;8.20;99.90;;;;;;5036943;28;20437;-63
2022/04/05 12:27:25;;;;;;;5.60;2.13;;;8.10;99.90;;;;;;5036796;28;20941;-71
2022/04/05 12:30:02;;;;;;;1.97;1.27;;;8.30;99.90;;;;;;5035957;28;20398;-71
2022/04/05 12:32:39;;;;;;;2.10;1.43;;;8.60;99.90;;;;;;5036664;28;20418;-72
2022/04/05 12:35:07;;;;;;;1.83;1.73;;;8.90;99.90;;;;;;5036782;28;20444;-72
2022/04/05 12:37:32;;;;;;;2.80;1.20;;;9.30;99.90;;;;;;5036631;28;20438;-66
2022/04/05 12:39:58;;;;;;;2.90;1.63;;;9.80;99.90;;;;;;5035861;28;20392;-66
2022/04/05 12:42:24;;;;;;;2.50;1.87;;;10.20;99.90;;;;;;5036408;28;20449;-66
2022/04/05 12:44:57;;;;;;;1.97;1.43;;;10.30;99.90;;;;;;5036632;28;20509;-72
2022/04/05 12:47:25;;;;;;;3.00;1.53;;;9.90;99.90;;;;;;5036350;28;20271;-66
2022/04/05 12:49:53;;;;;;;2.67;1.73;;;9.60;99.90;;;;;;5035685;28;20456;-67
2022/04/05 12:52:24;;;;;;;3.37;1.67;;;9.30;99.90;;;;;;5036137;28;20460;-66
2022/04/05 12:54:51;;;;;;;1.63;1.53;;;9.10;99.90;;;;;;5036249;28;20729;-66
2022/04/05 12:57:35;;;;;;;1.40;1.30;;;9.00;99.90;;;;;;5036288;28;20795;-71
2022/04/05 13:00:09;;;;;;;1.90;1.47;;;9.10;99.90;;;;;;5035375;28;21078;-67
2022/04/05 13:02:43;;;;;;;1.50;1.20;;;9.20;99.90;;;;;;5036176;28;20418;-64
2022/04/05 13:08:09;;;;;;;3.23;1.50;;;9.30;99.90;;;;;;5035875;28;20519;-70
2022/04/05 13:10:37;;;;;;;1.43;1.33;;;9.40;99.90;;;;;;5035411;28;20429;-66